Аэропорт: Борисполь. Киев

ICAO: UKBB

METAR:
2019/05/26 14:00
UKBB 261400Z 26007G12MPS CAVOK 24/09 Q1010 R88/CLRD// NOSIG
METAR:
2019/05/26 12:24
TAF TAF UKBB 261108Z 2612/2712 28005G10MPS 9999 BKN040 TX25/2712Z TN13/2703Z 
      TEMPO 2612/2616 30008G13MPS SCT025CB PROB40 
      TEMPO 2612/2616 2100 -TSRA BKN008 SCT015CB 
      BECMG 2616/2618 26004MPS 
      TEMPO 2620/2704 1600 BR BKN006 
      BECMG 2704/2706 23005G11MPS 
      TEMPO 2708/2712 2100 -TSRA BKN010 SCT020CB